sensor_id;sensor_type;location;lat;lon;timestamp;temperature;humidity
44671;DHT22;48397;53.016;-2.260;2022-12-31T00:00:36;11.40;99.90
44671;DHT22;48397;53.016;-2.260;2022-12-31T00:03:08;8.10;99.90
44671;DHT22;48397;53.016;-2.260;2022-12-31T00:05:36;8.10;99.90
44671;DHT22;48397;53.016;-2.260;2022-12-31T00:08:04;8.00;99.90
44671;DHT22;48397;53.016;-2.260;2022-12-31T00:10:32;8.10;99.90
44671;DHT22;48397;53.016;-2.260;2022-12-31T00:13:07;8.10;99.90
44671;DHT22;48397;53.016;-2.260;2022-12-31T00:15:37;8.20;99.90
44671;DHT22;48397;53.016;-2.260;2022-12-31T00:18:06;8.20;99.90
44671;DHT22;48397;53.016;-2.260;2022-12-31T00:20:37;8.30;99.90
44671;DHT22;48397;53.016;-2.260;2022-12-31T00:23:04;8.30;99.90
44671;DHT22;48397;53.016;-2.260;2022-12-31T00:25:34;8.40;99.90
44671;DHT22;48397;53.016;-2.260;2022-12-31T00:28:03;8.40;99.90
44671;DHT22;48397;53.016;-2.260;2022-12-31T00:30:33;8.50;99.90
44671;DHT22;48397;53.016;-2.260;2022-12-31T00:33:01;8.50;99.90
44671;DHT22;48397;53.016;-2.260;2022-12-31T00:35:29;8.60;99.90
44671;DHT22;48397;53.016;-2.260;2022-12-31T00:37:57;8.60;99.90
44671;DHT22;48397;53.016;-2.260;2022-12-31T00:40:24;8.70;99.90
44671;DHT22;48397;53.016;-2.260;2022-12-31T00:42:52;8.70;99.90
44671;DHT22;48397;53.016;-2.260;2022-12-31T00:47:48;8.70;99.90
44671;DHT22;48397;53.016;-2.260;2022-12-31T00:50:15;8.70;99.90
44671;DHT22;48397;53.016;-2.260;2022-12-31T00:52:43;8.70;99.90
44671;DHT22;48397;53.016;-2.260;2022-12-31T00:55:11;8.70;99.90
44671;DHT22;48397;53.016;-2.260;2022-12-31T00:57:39;8.60;99.90
44671;DHT22;48397;53.016;-2.260;2022-12-31T01:00:07;8.60;99.90
44671;DHT22;48397;53.016;-2.260;2022-12-31T01:02:35;8.50;99.90
44671;DHT22;48397;53.016;-2.260;2022-12-31T01:05:03;8.50;99.90
44671;DHT22;48397;53.016;-2.260;2022-12-31T01:07:32;8.40;99.90
44671;DHT22;48397;53.016;-2.260;2022-12-31T01:09:59;8.40;99.90
44671;DHT22;48397;53.016;-2.260;2022-12-31T01:12:27;8.40;99.90
44671;DHT22;48397;53.016;-2.260;2022-12-31T01:14:54;8.30;99.90
44671;DHT22;48397;53.016;-2.260;2022-12-31T01:17:22;8.20;99.90
44671;DHT22;48397;53.016;-2.260;2022-12-31T01:19:50;8.30;99.90
44671;DHT22;48397;53.016;-2.260;2022-12-31T01:22:18;8.20;99.90
44671;DHT22;48397;53.016;-2.260;2022-12-31T01:24:45;8.20;99.90
44671;DHT22;48397;53.016;-2.260;2022-12-31T01:27:13;8.20;99.90
44671;DHT22;48397;53.016;-2.260;2022-12-31T01:29:40;8.30;99.90
44671;DHT22;48397;53.016;-2.260;2022-12-31T01:32:08;8.30;99.90
44671;DHT22;48397;53.016;-2.260;2022-12-31T01:34:36;8.20;99.90
44671;DHT22;48397;53.016;-2.260;2022-12-31T01:37:04;8.30;99.90
44671;DHT22;48397;53.016;-2.260;2022-12-31T01:39:32;8.30;99.90
44671;DHT22;48397;53.016;-2.260;2022-12-31T01:42:00;8.30;99.90
44671;DHT22;48397;53.016;-2.260;2022-12-31T01:46:59;8.40;99.90
44671;DHT22;48397;53.016;-2.260;2022-12-31T01:52:36;8.50;99.90
44671;DHT22;48397;53.016;-2.260;2022-12-31T01:57:37;8.50;99.90
44671;DHT22;48397;53.016;-2.260;2022-12-31T02:00:05;8.60;99.90
44671;DHT22;48397;53.016;-2.260;2022-12-31T02:02:34;8.60;99.90
44671;DHT22;48397;53.016;-2.260;2022-12-31T02:05:08;8.70;99.90
44671;DHT22;48397;53.016;-2.260;2022-12-31T02:07:38;8.60;99.90
44671;DHT22;48397;53.016;-2.260;2022-12-31T02:10:06;8.60;99.90
44671;DHT22;48397;53.016;-2.260;2022-12-31T02:12:34;8.60;99.90
44671;DHT22;48397;53.016;-2.260;2022-12-31T02:15:02;8.60;99.90
44671;DHT22;48397;53.016;-2.260;2022-12-31T02:18:00;8.60;99.90
44671;DHT22;48397;53.016;-2.260;2022-12-31T02:29:25;8.50;99.90
44671;DHT22;48397;53.016;-2.260;2022-12-31T02:31:59;8.50;99.90
44671;DHT22;48397;53.016;-2.260;2022-12-31T02:34:40;8.50;99.90
44671;DHT22;48397;53.016;-2.260;2022-12-31T02:37:13;8.40;99.90
44671;DHT22;48397;53.016;-2.260;2022-12-31T02:39:43;8.50;99.90
44671;DHT22;48397;53.016;-2.260;2022-12-31T02:42:11;8.40;99.90
44671;DHT22;48397;53.016;-2.260;2022-12-31T02:44:40;8.50;99.90
44671;DHT22;48397;53.016;-2.260;2022-12-31T02:52:59;8.40;99.90
44671;DHT22;48397;53.016;-2.260;2022-12-31T02:56:03;8.40;99.90
44671;DHT22;48397;53.016;-2.260;2022-12-31T03:01:35;8.50;99.90
44671;DHT22;48397;53.016;-2.260;2022-12-31T03:04:23;8.50;99.90
44671;DHT22;48397;53.016;-2.260;2022-12-31T03:07:06;8.50;99.90
44671;DHT22;48397;53.016;-2.260;2022-12-31T03:09:35;8.50;99.90
44671;DHT22;48397;53.016;-2.260;2022-12-31T03:12:05;9.60;99.90
44671;DHT22;48397;53.016;-2.260;2022-12-31T03:14:52;8.50;99.90
44671;DHT22;48397;53.016;-2.260;2022-12-31T03:17:20;8.50;99.90
44671;DHT22;48397;53.016;-2.260;2022-12-31T03:19:48;8.50;99.90
44671;DHT22;48397;53.016;-2.260;2022-12-31T03:22:37;8.50;99.90
44671;DHT22;48397;53.016;-2.260;2022-12-31T03:25:09;8.60;99.90
44671;DHT22;48397;53.016;-2.260;2022-12-31T03:27:56;8.60;99.90
44671;DHT22;48397;53.016;-2.260;2022-12-31T03:30:24;8.50;99.90
44671;DHT22;48397;53.016;-2.260;2022-12-31T03:32:52;8.60;99.90
44671;DHT22;48397;53.016;-2.260;2022-12-31T03:35:21;8.60;99.90
44671;DHT22;48397;53.016;-2.260;2022-12-31T03:37:50;8.60;99.90
44671;DHT22;48397;53.016;-2.260;2022-12-31T03:40:19;8.60;99.90
44671;DHT22;48397;53.016;-2.260;2022-12-31T03:42:48;8.60;99.90
44671;DHT22;48397;53.016;-2.260;2022-12-31T03:45:16;8.60;99.90
44671;DHT22;48397;53.016;-2.260;2022-12-31T03:47:44;8.60;99.90
44671;DHT22;48397;53.016;-2.260;2022-12-31T03:50:14;8.60;99.90
44671;DHT22;48397;53.016;-2.260;2022-12-31T03:55:10;8.60;99.90
44671;DHT22;48397;53.016;-2.260;2022-12-31T03:57:38;8.60;99.90
44671;DHT22;48397;53.016;-2.260;2022-12-31T04:00:09;8.60;99.90
44671;DHT22;48397;53.016;-2.260;2022-12-31T04:02:38;8.60;99.90
44671;DHT22;48397;53.016;-2.260;2022-12-31T04:05:07;8.70;99.90
44671;DHT22;48397;53.016;-2.260;2022-12-31T04:10:04;8.60;99.90
44671;DHT22;48397;53.016;-2.260;2022-12-31T04:12:32;8.70;99.90
44671;DHT22;48397;53.016;-2.260;2022-12-31T04:15:51;8.60;99.90
44671;DHT22;48397;53.016;-2.260;2022-12-31T04:18:19;8.60;99.90
44671;DHT22;48397;53.016;-2.260;2022-12-31T04:20:47;8.60;99.90
44671;DHT22;48397;53.016;-2.260;2022-12-31T04:23:14;8.60;99.90
44671;DHT22;48397;53.016;-2.260;2022-12-31T04:25:42;8.60;99.90
44671;DHT22;48397;53.016;-2.260;2022-12-31T04:28:10;8.60;99.90
44671;DHT22;48397;53.016;-2.260;2022-12-31T04:30:39;8.60;99.90
44671;DHT22;48397;53.016;-2.260;2022-12-31T04:35:34;8.60;99.90
44671;DHT22;48397;53.016;-2.260;2022-12-31T04:38:02;8.60;99.90
44671;DHT22;48397;53.016;-2.260;2022-12-31T04:40:30;8.60;99.90
44671;DHT22;48397;53.016;-2.260;2022-12-31T04:42:58;8.60;99.90
44671;DHT22;48397;53.016;-2.260;2022-12-31T04:45:25;8.60;99.90
44671;DHT22;48397;53.016;-2.260;2022-12-31T04:47:53;8.50;99.90
44671;DHT22;48397;53.016;-2.260;2022-12-31T04:50:21;8.50;99.90
44671;DHT22;48397;53.016;-2.260;2022-12-31T04:55:16;8.40;99.90
44671;DHT22;48397;53.016;-2.260;2022-12-31T04:57:44;8.50;99.90
44671;DHT22;48397;53.016;-2.260;2022-12-31T05:00:12;8.50;99.90
44671;DHT22;48397;53.016;-2.260;2022-12-31T05:02:40;8.40;99.90
44671;DHT22;48397;53.016;-2.260;2022-12-31T05:05:08;8.40;99.90
44671;DHT22;48397;53.016;-2.260;2022-12-31T05:07:36;8.40;99.90
44671;DHT22;48397;53.016;-2.260;2022-12-31T05:12:31;8.40;99.90
44671;DHT22;48397;53.016;-2.260;2022-12-31T05:14:59;8.40;99.90
44671;DHT22;48397;53.016;-2.260;2022-12-31T05:17:27;8.40;99.90
44671;DHT22;48397;53.016;-2.260;2022-12-31T05:19:54;8.40;99.90
44671;DHT22;48397;53.016;-2.260;2022-12-31T05:22:22;8.40;99.90
44671;DHT22;48397;53.016;-2.260;2022-12-31T05:24:56;8.40;99.90
44671;DHT22;48397;53.016;-2.260;2022-12-31T05:29:53;8.50;99.90
44671;DHT22;48397;53.016;-2.260;2022-12-31T05:32:20;8.50;99.90
44671;DHT22;48397;53.016;-2.260;2022-12-31T05:34:48;8.50;99.90
44671;DHT22;48397;53.016;-2.260;2022-12-31T05:37:15;8.50;99.90
44671;DHT22;48397;53.016;-2.260;2022-12-31T05:39:43;8.50;99.90
44671;DHT22;48397;53.016;-2.260;2022-12-31T05:42:11;8.50;99.90
44671;DHT22;48397;53.016;-2.260;2022-12-31T05:44:38;8.60;99.90
44671;DHT22;48397;53.016;-2.260;2022-12-31T05:47:06;8.60;99.90
44671;DHT22;48397;53.016;-2.260;2022-12-31T05:49:34;8.60;99.90
44671;DHT22;48397;53.016;-2.260;2022-12-31T05:52:01;8.60;99.90
44671;DHT22;48397;53.016;-2.260;2022-12-31T05:54:29;8.60;99.90
44671;DHT22;48397;53.016;-2.260;2022-12-31T05:56:57;8.60;99.90
44671;DHT22;48397;53.016;-2.260;2022-12-31T05:59:25;8.60;99.90
44671;DHT22;48397;53.016;-2.260;2022-12-31T06:01:52;8.60;99.90
44671;DHT22;48397;53.016;-2.260;2022-12-31T06:04:20;8.70;99.90
44671;DHT22;48397;53.016;-2.260;2022-12-31T06:06:48;8.70;99.90
44671;DHT22;48397;53.016;-2.260;2022-12-31T06:09:18;8.70;99.90
44671;DHT22;48397;53.016;-2.260;2022-12-31T06:11:47;8.80;99.90
44671;DHT22;48397;53.016;-2.260;2022-12-31T06:14:15;8.80;99.90
44671;DHT22;48397;53.016;-2.260;2022-12-31T06:16:43;8.80;99.90
44671;DHT22;48397;53.016;-2.260;2022-12-31T06:19:10;8.80;99.90
44671;DHT22;48397;53.016;-2.260;2022-12-31T06:21:39;8.80;99.90
44671;DHT22;48397;53.016;-2.260;2022-12-31T06:24:08;8.80;99.90
44671;DHT22;48397;53.016;-2.260;2022-12-31T06:29:05;8.80;99.90
44671;DHT22;48397;53.016;-2.260;2022-12-31T06:31:33;8.80;99.90
44671;DHT22;48397;53.016;-2.260;2022-12-31T06:34:01;8.80;99.90
44671;DHT22;48397;53.016;-2.260;2022-12-31T06:36:29;8.80;99.90
44671;DHT22;48397;53.016;-2.260;2022-12-31T06:38:58;8.80;99.90
44671;DHT22;48397;53.016;-2.260;2022-12-31T06:43:55;8.80;99.90
44671;DHT22;48397;53.016;-2.260;2022-12-31T06:46:25;8.80;99.90
44671;DHT22;48397;53.016;-2.260;2022-12-31T06:48:53;8.80;99.90
44671;DHT22;48397;53.016;-2.260;2022-12-31T06:51:21;8.80;99.90
44671;DHT22;48397;53.016;-2.260;2022-12-31T06:53:52;8.80;99.90
44671;DHT22;48397;53.016;-2.260;2022-12-31T06:56:24;8.80;99.90
44671;DHT22;48397;53.016;-2.260;2022-12-31T06:59:12;8.90;99.90
44671;DHT22;48397;53.016;-2.260;2022-12-31T07:05:12;8.90;99.90
44671;DHT22;48397;53.016;-2.260;2022-12-31T07:08:05;8.90;99.90
44671;DHT22;48397;53.016;-2.260;2022-12-31T07:14:06;8.80;99.90
44671;DHT22;48397;53.016;-2.260;2022-12-31T07:20:13;8.90;99.90
44671;DHT22;48397;53.016;-2.260;2022-12-31T07:22:54;8.80;99.90
44671;DHT22;48397;53.016;-2.260;2022-12-31T07:25:24;8.80;99.90
44671;DHT22;48397;53.016;-2.260;2022-12-31T07:28:10;8.80;99.90
44671;DHT22;48397;53.016;-2.260;2022-12-31T07:34:10;8.80;99.90
44671;DHT22;48397;53.016;-2.260;2022-12-31T07:36:49;8.70;99.90
44671;DHT22;48397;53.016;-2.260;2022-12-31T07:39:46;8.80;99.90
44671;DHT22;48397;53.016;-2.260;2022-12-31T07:45:18;8.80;99.90
44671;DHT22;48397;53.016;-2.260;2022-12-31T07:47:47;8.80;99.90
44671;DHT22;48397;53.016;-2.260;2022-12-31T07:50:16;8.80;99.90
44671;DHT22;48397;53.016;-2.260;2022-12-31T07:52:46;8.70;99.90
44671;DHT22;48397;53.016;-2.260;2022-12-31T07:55:14;8.70;99.90
44671;DHT22;48397;53.016;-2.260;2022-12-31T07:57:53;8.60;99.90
44671;DHT22;48397;53.016;-2.260;2022-12-31T08:00:22;8.60;99.90
44671;DHT22;48397;53.016;-2.260;2022-12-31T08:03:07;8.60;99.90
44671;DHT22;48397;53.016;-2.260;2022-12-31T08:06:11;8.50;99.90
44671;DHT22;48397;53.016;-2.260;2022-12-31T08:08:50;8.50;99.90
44671;DHT22;48397;53.016;-2.260;2022-12-31T08:11:35;8.50;99.90
44671;DHT22;48397;53.016;-2.260;2022-12-31T08:14:08;8.50;99.90
44671;DHT22;48397;53.016;-2.260;2022-12-31T08:16:36;8.50;99.90
44671;DHT22;48397;53.016;-2.260;2022-12-31T08:19:05;8.50;99.90
44671;DHT22;48397;53.016;-2.260;2022-12-31T08:24:14;8.50;99.90
44671;DHT22;48397;53.016;-2.260;2022-12-31T08:29:36;8.60;99.90
44671;DHT22;48397;53.016;-2.260;2022-12-31T08:32:13;8.60;99.90
44671;DHT22;48397;53.016;-2.260;2022-12-31T08:37:41;8.70;99.90
44671;DHT22;48397;53.016;-2.260;2022-12-31T08:40:30;8.70;99.90
44671;DHT22;48397;53.016;-2.260;2022-12-31T08:45:55;8.70;99.90
44671;DHT22;48397;53.016;-2.260;2022-12-31T08:50:56;8.70;99.90
44671;DHT22;48397;53.016;-2.260;2022-12-31T08:53:25;8.80;99.90
44671;DHT22;48397;53.016;-2.260;2022-12-31T08:59:13;8.80;99.90
44671;DHT22;48397;53.016;-2.260;2022-12-31T09:05:03;8.80;99.90
44671;DHT22;48397;53.016;-2.260;2022-12-31T09:07:45;8.80;99.90
44671;DHT22;48397;53.016;-2.260;2022-12-31T09:10:30;8.90;99.90
44671;DHT22;48397;53.016;-2.260;2022-12-31T09:13:21;8.90;99.90
44671;DHT22;48397;53.016;-2.260;2022-12-31T09:18:43;8.90;99.90
44671;DHT22;48397;53.016;-2.260;2022-12-31T09:21:13;8.90;99.90
44671;DHT22;48397;53.016;-2.260;2022-12-31T09:23:42;8.90;99.90
44671;DHT22;48397;53.016;-2.260;2022-12-31T09:34:30;9.00;99.90
44671;DHT22;48397;53.016;-2.260;2022-12-31T09:46:23;9.10;99.90
44671;DHT22;48397;53.016;-2.260;2022-12-31T10:00:55;9.10;99.90
44671;DHT22;48397;53.016;-2.260;2022-12-31T10:06:22;9.10;99.90
44671;DHT22;48397;53.016;-2.260;2022-12-31T10:34:14;9.20;99.90
44671;DHT22;48397;53.016;-2.260;2022-12-31T10:39:37;9.30;99.90
44671;DHT22;48397;53.016;-2.260;2022-12-31T10:51:07;9.50;99.90
44671;DHT22;48397;53.016;-2.260;2022-12-31T10:57:05;9.60;99.90
44671;DHT22;48397;53.016;-2.260;2022-12-31T11:00:14;9.70;99.90
44671;DHT22;48397;53.016;-2.260;2022-12-31T11:08:37;9.80;99.90
44671;DHT22;48397;53.016;-2.260;2022-12-31T11:11:18;9.90;99.90
44671;DHT22;48397;53.016;-2.260;2022-12-31T11:22:55;10.20;99.90
44671;DHT22;48397;53.016;-2.260;2022-12-31T11:28:38;10.40;99.90
44671;DHT22;48397;53.016;-2.260;2022-12-31T11:37:31;10.40;99.90
44671;DHT22;48397;53.016;-2.260;2022-12-31T11:46:30;10.40;99.90
44671;DHT22;48397;53.016;-2.260;2022-12-31T12:00:01;10.30;99.90
44671;DHT22;48397;53.016;-2.260;2022-12-31T12:02:43;10.40;99.90
44671;DHT22;48397;53.016;-2.260;2022-12-31T12:05:15;10.40;99.90
44671;DHT22;48397;53.016;-2.260;2022-12-31T12:12:49;10.40;99.90
44671;DHT22;48397;53.016;-2.260;2022-12-31T12:18:03;10.40;99.90
44671;DHT22;48397;53.016;-2.260;2022-12-31T12:20:37;10.50;99.90
44671;DHT22;48397;53.016;-2.260;2022-12-31T12:23:24;10.50;99.90
44671;DHT22;48397;53.016;-2.260;2022-12-31T12:25:52;10.50;99.90
44671;DHT22;48397;53.016;-2.260;2022-12-31T12:28:23;10.50;99.90
44671;DHT22;48397;53.016;-2.260;2022-12-31T12:33:24;11.90;99.90
44671;DHT22;48397;53.016;-2.260;2022-12-31T12:38:22;10.50;99.90
44671;DHT22;48397;53.016;-2.260;2022-12-31T12:41:02;10.50;99.90
44671;DHT22;48397;53.016;-2.260;2022-12-31T12:43:33;10.50;99.90
44671;DHT22;48397;53.016;-2.260;2022-12-31T12:46:04;10.50;99.90
44671;DHT22;48397;53.016;-2.260;2022-12-31T12:51:31;10.60;99.90
44671;DHT22;48397;53.016;-2.260;2022-12-31T12:57:28;10.50;99.90
44671;DHT22;48397;53.016;-2.260;2022-12-31T13:11:21;10.50;99.90
44671;DHT22;48397;53.016;-2.260;2022-12-31T13:14:04;10.50;99.90
44671;DHT22;48397;53.016;-2.260;2022-12-31T13:27:33;10.50;99.90
44671;DHT22;48397;53.016;-2.260;2022-12-31T13:30:17;10.50;99.90
44671;DHT22;48397;53.016;-2.260;2022-12-31T13:32:54;10.50;99.90
44671;DHT22;48397;53.016;-2.260;2022-12-31T13:35:26;10.50;99.90
44671;DHT22;48397;53.016;-2.260;2022-12-31T13:38:02;10.40;99.90
44671;DHT22;48397;53.016;-2.260;2022-12-31T13:41:12;10.40;99.90
44671;DHT22;48397;53.016;-2.260;2022-12-31T13:44:11;10.40;99.90
44671;DHT22;48397;53.016;-2.260;2022-12-31T13:46:50;10.40;99.90
44671;DHT22;48397;53.016;-2.260;2022-12-31T13:49:28;10.40;99.90
44671;DHT22;48397;53.016;-2.260;2022-12-31T13:58:04;10.40;99.90
44671;DHT22;48397;53.016;-2.260;2022-12-31T14:00:39;10.40;99.90
44671;DHT22;48397;53.016;-2.260;2022-12-31T14:06:07;10.40;99.90
44671;DHT22;48397;53.016;-2.260;2022-12-31T14:08:36;10.30;99.90
44671;DHT22;48397;53.016;-2.260;2022-12-31T14:25:38;10.20;99.90
44671;DHT22;48397;53.016;-2.260;2022-12-31T14:28:05;10.20;99.90
44671;DHT22;48397;53.016;-2.260;2022-12-31T14:30:37;10.20;99.90
44671;DHT22;48397;53.016;-2.260;2022-12-31T14:38:52;10.20;99.90
44671;DHT22;48397;53.016;-2.260;2022-12-31T14:47:14;10.10;99.90
44671;DHT22;48397;53.016;-2.260;2022-12-31T14:50:21;10.10;99.90
44671;DHT22;48397;53.016;-2.260;2022-12-31T14:53:05;10.10;99.90
44671;DHT22;48397;53.016;-2.260;2022-12-31T14:55:38;10.00;99.90
44671;DHT22;48397;53.016;-2.260;2022-12-31T15:03:45;10.00;99.90
44671;DHT22;48397;53.016;-2.260;2022-12-31T15:28:04;9.90;99.90
44671;DHT22;48397;53.016;-2.260;2022-12-31T15:33:04;9.90;99.90
44671;DHT22;48397;53.016;-2.260;2022-12-31T15:35:51;9.90;99.90
44671;DHT22;48397;53.016;-2.260;2022-12-31T15:38:34;9.80;99.90
44671;DHT22;48397;53.016;-2.260;2022-12-31T15:41:24;9.80;99.90
44671;DHT22;48397;53.016;-2.260;2022-12-31T15:44:20;9.80;99.90
44671;DHT22;48397;53.016;-2.260;2022-12-31T15:47:14;9.80;99.90
44671;DHT22;48397;53.016;-2.260;2022-12-31T15:49:45;9.80;99.90
44671;DHT22;48397;53.016;-2.260;2022-12-31T15:52:25;9.80;99.90
44671;DHT22;48397;53.016;-2.260;2022-12-31T15:54:57;9.70;99.90
44671;DHT22;48397;53.016;-2.260;2022-12-31T15:57:32;9.70;99.90
44671;DHT22;48397;53.016;-2.260;2022-12-31T16:00:05;9.60;99.90
44671;DHT22;48397;53.016;-2.260;2022-12-31T16:02:34;7.50;99.90
44671;DHT22;48397;53.016;-2.260;2022-12-31T16:05:04;9.70;99.90
44671;DHT22;48397;53.016;-2.260;2022-12-31T16:07:32;9.60;99.90
44671;DHT22;48397;53.016;-2.260;2022-12-31T16:10:02;9.60;99.90
44671;DHT22;48397;53.016;-2.260;2022-12-31T16:12:34;9.60;99.90
44671;DHT22;48397;53.016;-2.260;2022-12-31T16:15:29;9.70;99.90
44671;DHT22;48397;53.016;-2.260;2022-12-31T16:18:08;9.60;99.90
44671;DHT22;48397;53.016;-2.260;2022-12-31T16:20:41;9.60;99.90
44671;DHT22;48397;53.016;-2.260;2022-12-31T16:23:24;9.60;99.90
44671;DHT22;48397;53.016;-2.260;2022-12-31T16:25:54;9.60;99.90
44671;DHT22;48397;53.016;-2.260;2022-12-31T16:28:30;9.60;99.90
44671;DHT22;48397;53.016;-2.260;2022-12-31T16:31:04;9.70;99.90
44671;DHT22;48397;53.016;-2.260;2022-12-31T16:33:32;9.70;99.90
44671;DHT22;48397;53.016;-2.260;2022-12-31T16:36:01;9.60;99.90
44671;DHT22;48397;53.016;-2.260;2022-12-31T16:38:35;9.70;99.90
44671;DHT22;48397;53.016;-2.260;2022-12-31T16:41:10;9.70;99.90
44671;DHT22;48397;53.016;-2.260;2022-12-31T16:43:41;9.70;99.90
44671;DHT22;48397;53.016;-2.260;2022-12-31T16:46:26;9.70;99.90
44671;DHT22;48397;53.016;-2.260;2022-12-31T16:49:05;9.70;99.90
44671;DHT22;48397;53.016;-2.260;2022-12-31T16:51:37;9.70;99.90
44671;DHT22;48397;53.016;-2.260;2022-12-31T16:56:35;9.80;99.90
44671;DHT22;48397;53.016;-2.260;2022-12-31T16:59:12;9.80;99.90
44671;DHT22;48397;53.016;-2.260;2022-12-31T17:01:44;9.80;99.90
44671;DHT22;48397;53.016;-2.260;2022-12-31T17:04:17;9.80;99.90
44671;DHT22;48397;53.016;-2.260;2022-12-31T17:06:47;9.80;99.90
44671;DHT22;48397;53.016;-2.260;2022-12-31T17:09:18;9.90;99.90
44671;DHT22;48397;53.016;-2.260;2022-12-31T17:11:52;9.90;99.90
44671;DHT22;48397;53.016;-2.260;2022-12-31T17:14:26;9.90;99.90
44671;DHT22;48397;53.016;-2.260;2022-12-31T17:16:58;9.90;99.90
44671;DHT22;48397;53.016;-2.260;2022-12-31T17:19:39;9.90;99.90
44671;DHT22;48397;53.016;-2.260;2022-12-31T17:22:16;9.90;99.90
44671;DHT22;48397;53.016;-2.260;2022-12-31T17:27:36;9.90;99.90
44671;DHT22;48397;53.016;-2.260;2022-12-31T17:30:36;9.90;99.90
44671;DHT22;48397;53.016;-2.260;2022-12-31T17:33:27;9.90;99.90
44671;DHT22;48397;53.016;-2.260;2022-12-31T17:36:12;9.90;99.90
44671;DHT22;48397;53.016;-2.260;2022-12-31T17:38:41;9.90;99.90
44671;DHT22;48397;53.016;-2.260;2022-12-31T17:41:29;9.90;99.90
44671;DHT22;48397;53.016;-2.260;2022-12-31T17:43:57;9.90;99.90
44671;DHT22;48397;53.016;-2.260;2022-12-31T17:46:25;11.60;99.90
44671;DHT22;48397;53.016;-2.260;2022-12-31T17:48:58;9.90;99.90
44671;DHT22;48397;53.016;-2.260;2022-12-31T17:51:27;9.90;99.90
44671;DHT22;48397;53.016;-2.260;2022-12-31T17:53:54;9.90;99.90
44671;DHT22;48397;53.016;-2.260;2022-12-31T17:58:52;9.90;99.90
44671;DHT22;48397;53.016;-2.260;2022-12-31T18:01:21;9.90;99.90
44671;DHT22;48397;53.016;-2.260;2022-12-31T18:03:51;9.90;99.90
44671;DHT22;48397;53.016;-2.260;2022-12-31T18:06:18;9.90;99.90
44671;DHT22;48397;53.016;-2.260;2022-12-31T18:08:46;9.90;99.90
44671;DHT22;48397;53.016;-2.260;2022-12-31T18:11:17;9.90;99.90
44671;DHT22;48397;53.016;-2.260;2022-12-31T18:13:45;9.90;99.90
44671;DHT22;48397;53.016;-2.260;2022-12-31T18:16:14;9.90;99.90
44671;DHT22;48397;53.016;-2.260;2022-12-31T18:18:42;9.90;99.90
44671;DHT22;48397;53.016;-2.260;2022-12-31T18:21:17;10.00;99.90
44671;DHT22;48397;53.016;-2.260;2022-12-31T18:23:47;10.00;99.90
44671;DHT22;48397;53.016;-2.260;2022-12-31T18:26:18;10.00;99.90
44671;DHT22;48397;53.016;-2.260;2022-12-31T18:28:47;10.00;99.90
44671;DHT22;48397;53.016;-2.260;2022-12-31T18:31:28;10.00;99.90
44671;DHT22;48397;53.016;-2.260;2022-12-31T18:33:58;10.00;99.90
44671;DHT22;48397;53.016;-2.260;2022-12-31T18:36:27;10.00;99.90
44671;DHT22;48397;53.016;-2.260;2022-12-31T18:38:55;10.10;99.90
44671;DHT22;48397;53.016;-2.260;2022-12-31T18:41:25;10.00;99.90
44671;DHT22;48397;53.016;-2.260;2022-12-31T18:43:54;10.00;99.90
44671;DHT22;48397;53.016;-2.260;2022-12-31T18:46:23;10.00;99.90
44671;DHT22;48397;53.016;-2.260;2022-12-31T18:48:51;9.90;99.90
44671;DHT22;48397;53.016;-2.260;2022-12-31T18:51:21;9.80;99.90
44671;DHT22;48397;53.016;-2.260;2022-12-31T18:54:02;9.80;99.90
44671;DHT22;48397;53.016;-2.260;2022-12-31T18:56:30;9.80;99.90
44671;DHT22;48397;53.016;-2.260;2022-12-31T18:59:00;9.80;99.90
44671;DHT22;48397;53.016;-2.260;2022-12-31T19:01:31;9.80;99.90
44671;DHT22;48397;53.016;-2.260;2022-12-31T19:04:10;9.80;99.90
44671;DHT22;48397;53.016;-2.260;2022-12-31T19:06:38;9.70;99.90
44671;DHT22;48397;53.016;-2.260;2022-12-31T19:11:54;9.70;99.90
44671;DHT22;48397;53.016;-2.260;2022-12-31T19:14:23;9.60;99.90
44671;DHT22;48397;53.016;-2.260;2022-12-31T19:16:53;9.60;99.90
44671;DHT22;48397;53.016;-2.260;2022-12-31T19:19:21;9.60;99.90
44671;DHT22;48397;53.016;-2.260;2022-12-31T19:21:48;9.60;99.90
44671;DHT22;48397;53.016;-2.260;2022-12-31T19:24:23;9.60;99.90
44671;DHT22;48397;53.016;-2.260;2022-12-31T19:26:53;9.50;99.90
44671;DHT22;48397;53.016;-2.260;2022-12-31T19:29:23;9.50;99.90
44671;DHT22;48397;53.016;-2.260;2022-12-31T19:31:52;9.50;99.90
44671;DHT22;48397;53.016;-2.260;2022-12-31T19:34:20;9.50;99.90
44671;DHT22;48397;53.016;-2.260;2022-12-31T19:36:47;9.50;99.90
44671;DHT22;48397;53.016;-2.260;2022-12-31T19:39:17;9.40;99.90
44671;DHT22;48397;53.016;-2.260;2022-12-31T19:41:46;9.40;99.90
44671;DHT22;48397;53.016;-2.260;2022-12-31T19:44:24;9.40;99.90
44671;DHT22;48397;53.016;-2.260;2022-12-31T19:46:52;9.50;99.90
44671;DHT22;48397;53.016;-2.260;2022-12-31T19:49:20;9.50;99.90
44671;DHT22;48397;53.016;-2.260;2022-12-31T19:51:48;9.50;99.90
44671;DHT22;48397;53.016;-2.260;2022-12-31T19:54:16;9.50;99.90
44671;DHT22;48397;53.016;-2.260;2022-12-31T19:56:44;9.50;99.90
44671;DHT22;48397;53.016;-2.260;2022-12-31T19:59:12;9.50;99.90
44671;DHT22;48397;53.016;-2.260;2022-12-31T20:01:40;9.50;99.90
44671;DHT22;48397;53.016;-2.260;2022-12-31T20:04:11;9.50;99.90
44671;DHT22;48397;53.016;-2.260;2022-12-31T20:06:38;9.50;99.90
44671;DHT22;48397;53.016;-2.260;2022-12-31T20:09:06;9.50;99.90
44671;DHT22;48397;53.016;-2.260;2022-12-31T20:11:34;9.50;99.90
44671;DHT22;48397;53.016;-2.260;2022-12-31T20:16:30;9.50;99.90
44671;DHT22;48397;53.016;-2.260;2022-12-31T20:18:58;9.50;99.90
44671;DHT22;48397;53.016;-2.260;2022-12-31T20:21:28;9.50;99.90
44671;DHT22;48397;53.016;-2.260;2022-12-31T20:23:56;9.40;99.90
44671;DHT22;48397;53.016;-2.260;2022-12-31T20:26:24;9.40;99.90
44671;DHT22;48397;53.016;-2.260;2022-12-31T20:31:24;9.30;99.90
44671;DHT22;48397;53.016;-2.260;2022-12-31T20:33:53;9.20;99.90
44671;DHT22;48397;53.016;-2.260;2022-12-31T20:36:22;9.20;99.90
44671;DHT22;48397;53.016;-2.260;2022-12-31T20:38:50;9.10;99.90
44671;DHT22;48397;53.016;-2.260;2022-12-31T20:41:19;8.90;99.90
44671;DHT22;48397;53.016;-2.260;2022-12-31T20:46:19;8.80;99.90
44671;DHT22;48397;53.016;-2.260;2022-12-31T20:48:49;8.80;99.90
44671;DHT22;48397;53.016;-2.260;2022-12-31T20:51:21;8.70;99.90
44671;DHT22;48397;53.016;-2.260;2022-12-31T20:53:52;8.80;99.90
44671;DHT22;48397;53.016;-2.260;2022-12-31T20:56:22;8.70;99.90
44671;DHT22;48397;53.016;-2.260;2022-12-31T20:58:50;8.60;99.90
44671;DHT22;48397;53.016;-2.260;2022-12-31T21:01:18;8.70;99.90
44671;DHT22;48397;53.016;-2.260;2022-12-31T21:03:47;8.60;99.90
44671;DHT22;48397;53.016;-2.260;2022-12-31T21:06:34;8.60;99.90
44671;DHT22;48397;53.016;-2.260;2022-12-31T21:09:04;8.60;99.90
44671;DHT22;48397;53.016;-2.260;2022-12-31T21:11:32;8.60;99.90
44671;DHT22;48397;53.016;-2.260;2022-12-31T21:14:19;8.60;99.90
44671;DHT22;48397;53.016;-2.260;2022-12-31T21:16:47;8.60;99.90
44671;DHT22;48397;53.016;-2.260;2022-12-31T21:19:14;8.50;99.90
44671;DHT22;48397;53.016;-2.260;2022-12-31T21:21:42;8.50;99.90
44671;DHT22;48397;53.016;-2.260;2022-12-31T21:24:10;8.60;99.90
44671;DHT22;48397;53.016;-2.260;2022-12-31T21:26:38;8.50;99.90